Time;durP1;ratioP1;P1;durP2;ratioP2;P2;SDS_P1;SDS_P2;PMS_P1;PMS_P2;Temp;Humidity;BMP_temperature;BMP_pressure;BME280_temperature;BME280_humidity;BME280_pressure;Samples;Min_cycle;Max_cycle;Signal;HPM_P1;HPM_P2
2021/05/19 00:00:49;;;;;;;9.18;5.43;;;15.00;84.50;;;;;;4956357;29;20407;-81
2021/05/19 00:03:16;;;;;;;13.90;6.07;;;14.70;84.40;;;;;;4955869;29;20065;-82
2021/05/19 00:05:42;;;;;;;14.30;6.90;;;14.70;84.70;;;;;;4956229;29;20439;-83
2021/05/19 00:08:08;;;;;;;12.98;6.88;;;15.20;84.40;;;;;;4956421;29;20067;-83
2021/05/19 00:10:35;;;;;;;8.02;5.93;;;15.80;83.00;;;;;;4956529;29;20086;-79
2021/05/19 00:13:01;;;;;;;10.60;6.30;;;16.00;81.90;;;;;;4955881;29;20035;-80
2021/05/19 00:15:27;;;;;;;14.23;7.28;;;16.10;82.40;;;;;;4956522;29;20106;-82
2021/05/19 00:17:53;;;;;;;11.57;6.18;;;16.10;83.90;;;;;;4956103;29;20106;-80
2021/05/19 00:20:20;;;;;;;12.07;7.03;;;15.80;86.70;;;;;;4956101;29;20376;-83
2021/05/19 00:39:36;;;;;;;10.88;5.35;;;15.50;90.60;;;;;;4955584;28;20082;-79
2021/05/19 00:42:02;;;;;;;11.55;5.78;;;15.40;90.10;;;;;;4954420;29;20023;-80
2021/05/19 00:44:28;;;;;;;12.23;4.90;;;15.40;90.20;;;;;;4955355;29;20106;-79
2021/05/19 00:46:53;;;;;;;10.45;5.47;;;15.50;90.20;;;;;;4955365;28;20468;-80
2021/05/19 00:49:19;;;;;;;9.40;4.88;;;15.60;90.40;;;;;;4954156;29;20031;-81
2021/05/19 00:51:45;;;;;;;9.98;5.13;;;15.50;90.20;;;;;;4955276;29;20131;-81
2021/05/19 00:54:11;;;;;;;10.60;5.50;;;15.50;90.40;;;;;;4953864;29;20522;-80
2021/05/19 00:56:36;;;;;;;8.23;4.80;;;15.40;90.80;;;;;;4955403;28;20102;-81
2021/05/19 00:59:03;;;;;;;12.23;4.65;;;15.40;91.10;;;;;;4955428;28;20035;-79
2021/05/19 01:01:37;;;;;;;11.07;5.18;;;15.40;91.30;;;;;;4955346;29;20499;-80
2021/05/19 01:04:04;;;;;;;9.80;4.95;;;15.40;91.60;;;;;;4953970;29;20137;-83
2021/05/19 01:06:54;;;;;;;8.05;5.10;;;15.50;91.70;;;;;;4955037;28;20034;-83
2021/05/19 01:09:35;;;;;;;10.93;5.43;;;15.30;91.70;;;;;;4955155;29;20391;-81
2021/05/19 01:12:05;;;;;;;14.15;5.80;;;15.10;92.00;;;;;;4955090;28;20443;-83
2021/05/19 01:14:34;;;;;;;13.60;6.03;;;15.00;92.90;;;;;;4954957;28;20027;-84
2021/05/19 01:16:59;;;;;;;14.32;6.88;;;15.10;93.20;;;;;;4954458;28;20070;-84
2021/05/19 01:19:26;;;;;;;17.08;6.20;;;15.10;92.90;;;;;;4954999;28;20062;-81
2021/05/19 01:21:56;;;;;;;11.90;5.95;;;15.10;93.30;;;;;;4955057;28;20019;-80
2021/05/19 01:24:22;;;;;;;11.25;5.93;;;15.10;93.70;;;;;;4954787;28;20061;-81
2021/05/19 01:26:47;;;;;;;12.38;6.03;;;14.90;93.80;;;;;;4953402;29;20026;-79
2021/05/19 01:29:14;;;;;;;12.75;5.82;;;14.70;94.40;;;;;;4954817;28;20023;-83
2021/05/19 01:31:44;;;;;;;11.68;5.60;;;14.70;95.10;;;;;;4954387;28;20411;-79
2021/05/19 01:34:10;;;;;;;11.27;5.95;;;14.60;95.20;;;;;;4955104;28;20372;-80
2021/05/19 01:36:35;;;;;;;11.00;5.63;;;14.60;96.00;;;;;;4954290;29;20541;-79
2021/05/19 01:39:01;;;;;;;12.10;6.10;;;14.50;96.50;;;;;;4954313;28;20043;-76
2021/05/19 01:41:27;;;;;;;9.30;5.50;;;14.60;96.40;;;;;;4952731;28;20157;-81
2021/05/19 01:43:53;;;;;;;12.00;5.22;;;14.60;96.40;;;;;;4954625;29;20028;-79
2021/05/19 01:49:42;;;;;;;10.27;4.82;;;14.70;97.20;;;;;;4954468;29;20046;-80
2021/05/19 01:52:10;;;;;;;9.52;5.05;;;14.30;97.30;;;;;;4954423;29;20062;-81
2021/05/19 01:54:39;;;;;;;9.23;4.45;;;14.40;97.80;;;;;;4952820;29;20495;-79
2021/05/19 01:57:09;;;;;;;8.98;4.18;;;14.30;97.50;;;;;;4936740;29;20399;-81
2021/05/19 01:59:35;;;;;;;9.07;4.13;;;14.40;97.10;;;;;;4953985;29;20093;-82
2021/05/19 02:02:01;;;;;;;8.23;4.38;;;14.40;96.10;;;;;;4954097;29;20391;-81
2021/05/19 02:04:27;;;;;;;6.93;3.90;;;14.30;95.40;;;;;;4953754;29;20502;-78
2021/05/19 02:06:55;;;;;;;6.93;4.13;;;14.30;95.50;;;;;;4954030;29;20031;-81
2021/05/19 02:09:22;;;;;;;10.45;4.90;;;14.30;95.10;;;;;;4954251;29;20050;-79
2021/05/19 02:11:49;;;;;;;7.45;4.03;;;14.00;95.30;;;;;;4953862;29;20035;-79
2021/05/19 02:14:16;;;;;;;5.80;3.60;;;13.90;95.40;;;;;;4953980;29;20027;-79
2021/05/19 02:16:42;;;;;;;5.38;3.80;;;13.70;96.10;;;;;;4954102;29;20031;-79
2021/05/19 02:19:12;;;;;;;11.82;5.15;;;13.60;96.90;;;;;;4954087;29;20395;-78
2021/05/19 02:21:46;;;;;;;9.50;4.75;;;13.70;97.00;;;;;;4953861;29;20035;-80
2021/05/19 02:24:13;;;;;;;9.80;4.88;;;13.90;97.10;;;;;;4954039;29;20031;-80
2021/05/19 02:26:40;;;;;;;7.63;4.43;;;13.90;96.80;;;;;;4953681;29;20102;-81
2021/05/19 02:29:07;;;;;;;6.90;4.20;;;13.70;97.30;;;;;;4952505;29;20035;-79
2021/05/19 02:31:34;;;;;;;12.98;4.82;;;13.90;97.80;;;;;;4953538;29;20423;-78
2021/05/19 02:33:59;;;;;;;7.30;4.35;;;14.00;97.70;;;;;;4953898;29;20046;-79
2021/05/19 02:36:26;;;;;;;9.73;4.20;;;14.10;97.50;;;;;;4953583;29;20027;-79
2021/05/19 02:38:53;;;;;;;7.30;4.03;;;14.00;97.60;;;;;;4953678;28;20050;-80
2021/05/19 02:41:19;;;;;;;7.80;4.32;;;13.90;98.10;;;;;;4953269;29;20094;-79
2021/05/19 02:43:45;;;;;;;8.63;4.40;;;13.90;98.20;;;;;;4952384;29;20387;-79
2021/05/19 02:46:14;;;;;;;7.63;4.40;;;13.90;98.50;;;;;;4953219;29;20474;-78
2021/05/19 02:48:41;;;;;;;6.07;3.78;;;13.80;98.90;;;;;;4953798;29;20039;-80
2021/05/19 02:51:08;;;;;;;6.75;4.45;;;13.90;98.80;;;;;;4952465;29;20034;-78
2021/05/19 02:53:34;;;;;;;7.15;4.20;;;13.90;99.00;;;;;;4956479;28;20054;-79
2021/05/19 02:56:00;;;;;;;7.40;4.47;;;14.00;99.20;;;;;;4957185;29;20042;-81
2021/05/19 02:58:26;;;;;;;8.05;4.40;;;13.90;99.20;;;;;;4956131;29;20027;-80
2021/05/19 03:00:52;;;;;;;10.40;4.95;;;13.70;99.30;;;;;;4957177;28;20082;-80
2021/05/19 03:03:18;;;;;;;9.40;4.35;;;13.70;99.60;;;;;;4956052;29;20040;-81
2021/05/19 03:05:44;;;;;;;7.40;4.63;;;13.80;99.70;;;;;;4957331;29;20033;-78
2021/05/19 03:08:10;;;;;;;8.95;4.10;;;13.90;99.70;;;;;;4957497;28;20038;-79
2021/05/19 03:10:35;;;;;;;8.32;4.40;;;13.80;99.50;;;;;;4957064;29;20388;-81
2021/05/19 03:13:03;;;;;;;8.85;4.53;;;13.90;99.90;;;;;;4957132;29;20094;-81
2021/05/19 03:15:30;;;;;;;6.40;4.18;;;14.00;99.90;;;;;;4957456;28;20058;-84
2021/05/19 03:17:56;;;;;;;8.77;4.50;;;14.00;99.90;;;;;;4957003;29;20039;-82
2021/05/19 03:20:23;;;;;;;9.82;4.70;;;14.00;99.80;;;;;;4957003;29;20034;-83
2021/05/19 03:22:49;;;;;;;6.15;4.07;;;14.10;99.80;;;;;;4957168;28;20438;-83
2021/05/19 03:25:14;;;;;;;8.02;4.68;;;13.90;99.40;;;;;;4957126;28;20035;-85
2021/05/19 03:27:41;;;;;;;8.90;4.15;;;13.80;99.90;;;;;;4956546;29;20057;-80
2021/05/19 03:30:11;;;;;;;7.40;4.18;;;13.80;99.90;;;;;;4957153;28;20091;-82
2021/05/19 03:32:38;;;;;;;7.97;4.57;;;13.60;99.90;;;;;;4956688;28;20376;-81
2021/05/19 03:35:06;;;;;;;7.07;4.30;;;13.50;99.90;;;;;;4955381;29;20031;-83
2021/05/19 03:37:33;;;;;;;9.48;4.20;;;13.80;99.90;;;;;;4955688;29;20387;-82
2021/05/19 03:40:00;;;;;;;10.63;4.43;;;13.80;99.90;;;;;;4956901;28;20039;-83
2021/05/19 03:42:26;;;;;;;8.82;5.18;;;13.90;99.90;;;;;;4955267;29;20046;-82
2021/05/19 03:44:52;;;;;;;8.48;4.90;;;13.60;99.90;;;;;;4955506;29;20394;-81
2021/05/19 03:47:18;;;;;;;7.95;4.70;;;13.50;99.90;;;;;;4956787;29;20532;-83
2021/05/19 03:49:44;;;;;;;8.63;5.00;;;13.70;99.90;;;;;;4955367;29;20464;-80
2021/05/19 03:52:10;;;;;;;8.50;5.10;;;13.70;99.90;;;;;;4955206;28;20035;-81
2021/05/19 03:54:36;;;;;;;9.13;4.70;;;13.80;99.90;;;;;;4956444;29;20053;-80
2021/05/19 03:57:04;;;;;;;10.15;4.53;;;13.80;99.90;;;;;;4956318;29;20427;-82
2021/05/19 03:59:31;;;;;;;8.68;4.75;;;13.90;99.90;;;;;;4955372;29;20066;-82
2021/05/19 04:01:56;;;;;;;9.68;5.30;;;13.70;99.90;;;;;;4956554;29;20023;-81
2021/05/19 04:04:22;;;;;;;7.22;4.03;;;13.60;99.90;;;;;;4954006;28;20035;-79
2021/05/19 04:06:48;;;;;;;12.70;4.22;;;13.80;99.90;;;;;;4954754;29;20027;-81
2021/05/19 04:09:37;;;;;;;11.00;4.97;;;13.90;99.90;;;;;;4956144;29;20481;-79
2021/05/19 04:12:04;;;;;;;11.40;4.97;;;13.80;99.90;;;;;;4955849;29;20021;-81
2021/05/19 04:14:30;;;;;;;7.78;4.65;;;14.00;99.90;;;;;;4956232;29;20028;-83
2021/05/19 04:16:56;;;;;;;10.13;5.22;;;14.00;99.90;;;;;;4938691;29;20063;-83
2021/05/19 04:19:21;;;;;;;9.77;4.70;;;14.10;99.90;;;;;;4938802;29;20128;-82
2021/05/19 04:21:47;;;;;;;8.45;4.72;;;14.10;99.90;;;;;;4955989;29;20420;-81
2021/05/19 04:24:13;;;;;;;10.93;4.68;;;14.00;99.90;;;;;;4939000;29;20399;-81
2021/05/19 04:26:39;;;;;;;7.13;4.55;;;14.10;99.90;;;;;;4954241;29;20147;-83
2021/05/19 04:29:05;;;;;;;7.75;4.28;;;14.30;99.90;;;;;;4954938;29;20034;-83
2021/05/19 04:31:31;;;;;;;9.18;4.95;;;14.30;99.90;;;;;;4938485;29;20095;-83
2021/05/19 04:33:58;;;;;;;11.10;4.55;;;14.20;99.90;;;;;;4955792;29;20094;-83
2021/05/19 04:36:26;;;;;;;9.35;4.63;;;14.40;99.90;;;;;;4955499;29;20023;-83
2021/05/19 04:38:52;;;;;;;6.78;4.35;;;14.30;99.90;;;;;;4955900;28;20035;-81
2021/05/19 04:41:20;;;;;;;9.05;4.45;;;14.40;99.90;;;;;;4955300;29;20360;-82
2021/05/19 04:43:46;;;;;;;12.00;4.70;;;14.50;99.90;;;;;;4954214;29;20078;-81
2021/05/19 04:46:11;;;;;;;10.35;4.93;;;14.50;99.90;;;;;;4953565;29;20047;-82
2021/05/19 04:48:37;;;;;;;11.60;5.00;;;14.50;99.90;;;;;;4955419;28;20015;-81
2021/05/19 04:51:04;;;;;;;7.25;4.20;;;14.60;99.80;;;;;;4955142;29;20031;-80
2021/05/19 04:53:30;;;;;;;10.25;3.45;;;14.60;99.20;;;;;;4954032;29;20047;-81
2021/05/19 04:55:56;;;;;;;8.65;4.05;;;14.50;99.00;;;;;;4954798;28;20043;-81
2021/05/19 04:58:26;;;;;;;9.68;4.20;;;14.80;99.00;;;;;;4954267;29;20039;-82
2021/05/19 05:00:53;;;;;;;10.27;4.63;;;14.90;98.90;;;;;;4954186;29;20453;-78
2021/05/19 05:03:19;;;;;;;9.32;4.97;;;15.00;98.90;;;;;;4954246;29;20444;-81
2021/05/19 05:05:50;;;;;;;9.32;5.03;;;15.00;98.80;;;;;;4955399;28;20019;-81
2021/05/19 05:08:16;;;;;;;11.00;5.85;;;15.10;98.90;;;;;;4954107;29;20430;-82
2021/05/19 05:10:42;;;;;;;42.67;24.13;;;15.10;98.70;;;;;;4954945;28;20526;-82
2021/05/19 05:13:08;;;;;;;39.17;24.70;;;15.40;99.90;;;;;;4952178;29;20062;-79
2021/05/19 05:15:34;;;;;;;38.50;25.42;;;15.50;99.60;;;;;;4952090;28;20039;-80
2021/05/19 05:18:00;;;;;;;18.85;11.40;;;15.70;99.70;;;;;;4954390;28;20042;-84
2021/05/19 05:20:26;;;;;;;12.65;5.07;;;15.60;98.60;;;;;;4953417;29;20372;-84
2021/05/19 05:22:52;;;;;;;9.68;4.45;;;15.50;98.30;;;;;;4954112;29;20486;-78
2021/05/19 05:25:18;;;;;;;7.53;4.43;;;15.50;98.10;;;;;;4954046;28;20443;-82
2021/05/19 05:27:47;;;;;;;6.43;4.15;;;15.40;97.90;;;;;;4954193;28;20031;-82
2021/05/19 05:30:14;;;;;;;104.68;67.38;;;15.50;97.70;;;;;;4936972;29;20019;-82
2021/05/19 05:32:43;;;;;;;80.03;50.00;;;15.60;97.80;;;;;;4952733;29;20039;-84
2021/05/19 05:35:10;;;;;;;17.27;10.95;;;15.90;97.80;;;;;;4953886;29;20027;-94
2021/05/19 05:37:36;;;;;;;10.45;6.38;;;15.70;96.40;;;;;;4954701;28;20019;-82
2021/05/19 05:40:07;;;;;;;7.10;4.10;;;15.80;97.10;;;;;;4954062;28;20039;-81
2021/05/19 05:42:34;;;;;;;8.40;4.53;;;15.90;96.80;;;;;;4952871;29;20023;-85
2021/05/19 05:45:01;;;;;;;8.23;4.40;;;15.90;96.40;;;;;;4954364;28;20456;-82
2021/05/19 05:47:27;;;;;;;12.90;4.72;;;16.10;96.20;;;;;;4954152;28;20379;-83
2021/05/19 05:49:53;;;;;;;8.73;4.47;;;16.30;96.30;;;;;;4954658;29;20478;-83
2021/05/19 05:52:19;;;;;;;12.40;6.65;;;16.30;95.50;;;;;;4953909;29;20039;-82
2021/05/19 05:54:45;;;;;;;13.30;5.70;;;16.50;95.20;;;;;;4953900;28;20063;-85
2021/05/19 05:57:11;;;;;;;7.93;4.57;;;16.60;95.00;;;;;;4953848;29;20069;-79
2021/05/19 05:59:37;;;;;;;13.70;4.95;;;16.40;94.20;;;;;;4951110;29;20368;-80
2021/05/19 06:02:03;;;;;;;14.43;5.47;;;16.50;94.50;;;;;;4953526;28;20026;-86
2021/05/19 06:04:29;;;;;;;11.20;4.88;;;16.60;94.00;;;;;;4952124;29;20035;-81
2021/05/19 06:06:54;;;;;;;11.48;4.70;;;16.60;93.80;;;;;;4953288;28;20028;-82
2021/05/19 06:09:20;;;;;;;10.13;4.55;;;16.50;94.00;;;;;;4953769;29;20041;-78
2021/05/19 06:11:46;;;;;;;15.82;4.90;;;16.60;94.20;;;;;;4955590;28;20492;-82
2021/05/19 06:14:12;;;;;;;13.15;4.70;;;16.70;94.50;;;;;;4962490;28;20427;-82
2021/05/19 06:16:38;;;;;;;17.38;9.32;;;16.80;94.10;;;;;;4955735;28;20065;-80
2021/05/19 06:19:04;;;;;;;13.13;5.88;;;16.80;95.40;;;;;;4957921;28;20082;-86
2021/05/19 06:21:29;;;;;;;11.52;5.03;;;16.90;93.20;;;;;;4973419;28;20018;-81
2021/05/19 06:23:55;;;;;;;17.73;5.90;;;17.10;93.30;;;;;;4967319;28;20505;-88
2021/05/19 06:26:21;;;;;;;10.30;6.00;;;17.20;93.20;;;;;;4974767;28;20031;-82
2021/05/19 06:28:47;;;;;;;13.68;6.53;;;17.20;92.90;;;;;;4975356;28;20172;-80
2021/05/19 06:31:13;;;;;;;12.07;6.50;;;17.10;92.70;;;;;;4955600;29;20027;-81
2021/05/19 06:33:39;;;;;;;17.00;5.93;;;17.20;92.70;;;;;;4954084;29;20028;-81
2021/05/19 06:36:05;;;;;;;18.58;6.47;;;17.20;91.80;;;;;;4953872;28;20030;-80
2021/05/19 06:38:30;;;;;;;12.25;6.03;;;17.30;91.70;;;;;;4972521;28;20037;-81
2021/05/19 06:40:56;;;;;;;18.30;8.10;;;17.40;91.50;;;;;;4970970;28;20390;-82
2021/05/19 06:43:22;;;;;;;14.65;7.63;;;17.40;91.10;;;;;;4951413;28;20494;-80
2021/05/19 06:45:48;;;;;;;15.48;8.00;;;17.50;90.40;;;;;;4961706;28;20029;-81
2021/05/19 06:48:13;;;;;;;17.25;8.48;;;17.60;90.20;;;;;;4960373;28;20108;-78
2021/05/19 06:50:39;;;;;;;19.75;8.95;;;17.60;89.60;;;;;;4952690;28;20471;-79
2021/05/19 06:53:05;;;;;;;20.00;8.43;;;17.70;90.90;;;;;;4966714;28;20049;-81
2021/05/19 06:55:31;;;;;;;20.75;7.43;;;17.70;89.70;;;;;;4956152;28;20044;-81
2021/05/19 06:57:56;;;;;;;18.27;7.00;;;17.50;87.60;;;;;;4957452;28;20030;-81
2021/05/19 07:00:23;;;;;;;20.75;7.22;;;17.60;86.80;;;;;;4961549;28;20077;-81
2021/05/19 07:02:49;;;;;;;12.82;6.38;;;17.50;87.30;;;;;;4971290;28;20030;-81
2021/05/19 07:05:14;;;;;;;14.82;5.82;;;17.60;87.60;;;;;;4970333;28;20478;-79
2021/05/19 07:07:41;;;;;;;15.40;6.70;;;17.50;85.90;;;;;;4960205;28;20030;-79
2021/05/19 07:10:08;;;;;;;17.35;6.78;;;17.50;86.50;;;;;;4959459;28;20027;-80
2021/05/19 07:12:34;;;;;;;15.38;5.72;;;17.40;86.30;;;;;;4957673;28;20101;-81
2021/05/19 07:15:02;;;;;;;14.07;5.97;;;17.40;87.40;;;;;;4952341;28;20478;-81
2021/05/19 07:17:28;;;;;;;23.95;7.25;;;17.70;87.70;;;;;;4960600;28;20023;-81
2021/05/19 07:19:54;;;;;;;15.68;6.72;;;18.10;86.50;;;;;;4962288;28;20124;-81
2021/05/19 07:22:20;;;;;;;16.88;7.93;;;18.20;85.40;;;;;;4958574;28;20041;-78
2021/05/19 07:24:47;;;;;;;19.67;7.03;;;17.80;87.20;;;;;;4951620;28;20133;-79
2021/05/19 07:27:13;;;;;;;17.30;7.13;;;17.70;86.20;;;;;;4950293;29;20027;-80
2021/05/19 07:29:39;;;;;;;18.65;8.20;;;17.80;86.40;;;;;;4951498;28;20067;-81
2021/05/19 07:32:05;;;;;;;14.25;7.53;;;17.90;84.40;;;;;;4951831;28;20471;-80
2021/05/19 07:34:32;;;;;;;19.20;6.53;;;17.50;85.60;;;;;;4952076;29;20095;-82
2021/05/19 07:36:58;;;;;;;11.88;5.95;;;17.60;85.70;;;;;;4953110;28;20023;-82
2021/05/19 07:39:24;;;;;;;17.33;6.38;;;17.60;85.50;;;;;;4952898;28;20094;-82
2021/05/19 07:41:50;;;;;;;14.18;7.70;;;17.80;85.20;;;;;;4955828;28;20024;-83
2021/05/19 07:44:15;;;;;;;13.80;7.03;;;17.70;85.40;;;;;;4954725;29;20454;-82
2021/05/19 07:46:41;;;;;;;14.98;6.30;;;17.90;84.80;;;;;;4940133;28;20088;-79
2021/05/19 07:49:07;;;;;;;17.17;5.82;;;18.10;85.00;;;;;;4967036;28;20034;-81
2021/05/19 07:51:33;;;;;;;18.75;7.05;;;18.20;83.70;;;;;;4965580;28;20542;-81
2021/05/19 07:53:59;;;;;;;18.80;7.28;;;18.40;83.40;;;;;;4956022;28;20047;-78
2021/05/19 07:59:02;;;;;;;17.92;6.75;;;18.70;82.40;;;;;;4951827;28;20086;-80
2021/05/19 08:04:09;;;;;;;15.07;5.55;;;19.10;82.40;;;;;;4952931;28;20368;-79
2021/05/19 08:06:38;;;;;;;11.98;5.82;;;19.10;81.90;;;;;;4944501;28;20078;-79
2021/05/19 08:09:05;;;;;;;15.65;6.03;;;18.90;82.10;;;;;;4952429;29;20080;-80
2021/05/19 08:11:32;;;;;;;15.77;5.78;;;19.10;81.70;;;;;;4954588;29;20028;-81
2021/05/19 08:13:58;;;;;;;11.90;6.07;;;19.20;81.30;;;;;;4953981;29;20058;-80
2021/05/19 08:16:24;;;;;;;13.77;5.47;;;19.40;81.10;;;;;;4953839;29;20379;-81
2021/05/19 08:18:49;;;;;;;11.13;5.30;;;19.30;79.00;;;;;;4954268;29;20031;-81
2021/05/19 08:21:16;;;;;;;10.93;5.85;;;19.20;78.80;;;;;;4954020;28;20383;-80
2021/05/19 08:23:42;;;;;;;16.38;5.93;;;19.10;79.20;;;;;;4956086;28;20062;-80
2021/05/19 08:26:08;;;;;;;14.40;5.80;;;19.30;79.50;;;;;;4954378;28;20038;-81
2021/05/19 08:28:34;;;;;;;19.05;5.72;;;19.40;80.00;;;;;;4955748;28;20027;-80
2021/05/19 08:31:01;;;;;;;11.52;4.82;;;19.50;79.80;;;;;;4962577;28;20027;-80
2021/05/19 08:33:26;;;;;;;11.60;4.15;;;19.40;78.80;;;;;;4969922;28;20109;-81
2021/05/19 08:35:52;;;;;;;12.77;3.42;;;19.60;76.90;;;;;;4953470;28;20165;-81
2021/05/19 08:38:18;;;;;;;10.32;3.72;;;19.80;75.70;;;;;;4956351;28;20035;-80
2021/05/19 08:40:44;;;;;;;9.25;3.30;;;19.70;74.10;;;;;;4952643;28;20130;-80
2021/05/19 08:43:13;;;;;;;9.85;3.40;;;19.80;74.20;;;;;;4954718;28;20061;-78
2021/05/19 08:45:39;;;;;;;10.73;3.55;;;19.60;74.30;;;;;;4950678;28;20027;-80
2021/05/19 08:48:07;;;;;;;13.13;3.67;;;19.70;74.40;;;;;;4965138;28;20023;-79
2021/05/19 08:50:35;;;;;;;11.15;3.40;;;19.70;74.90;;;;;;4955227;28;20027;-79
2021/05/19 08:53:05;;;;;;;12.05;3.10;;;19.70;74.00;;;;;;4959530;28;20040;-79
2021/05/19 08:55:31;;;;;;;7.95;3.22;;;19.80;74.40;;;;;;4960586;28;20110;-80
2021/05/19 08:57:57;;;;;;;7.78;2.92;;;19.90;73.10;;;;;;4962510;28;20102;-80
2021/05/19 09:00:23;;;;;;;7.57;3.22;;;19.90;71.50;;;;;;4954801;28;20522;-82
2021/05/19 09:03:15;;;;;;;5.80;2.20;;;20.30;73.20;;;;;;4958009;28;20424;-80
2021/05/19 09:05:44;;;;;;;6.10;2.80;;;20.70;70.00;;;;;;4951894;28;20035;-79
2021/05/19 09:08:16;;;;;;;8.02;3.33;;;21.10;70.80;;;;;;4953167;28;20113;-80
2021/05/19 09:10:44;;;;;;;4.47;2.15;;;21.20;68.20;;;;;;4950647;28;20027;-78
2021/05/19 09:13:35;;;;;;;4.35;1.95;;;21.30;66.40;;;;;;4952717;29;20038;-81
2021/05/19 09:16:04;;;;;;;6.05;2.30;;;21.50;67.80;;;;;;4952376;28;20650;-77
2021/05/19 09:18:52;;;;;;;5.47;2.35;;;21.40;68.80;;;;;;4951592;29;20118;-79
2021/05/19 09:21:41;;;;;;;5.80;2.22;;;21.70;68.40;;;;;;4951509;28;20031;-78
2021/05/19 09:24:12;;;;;;;5.40;2.08;;;21.70;66.40;;;;;;4960475;28;20600;-81
2021/05/19 09:26:58;;;;;;;6.50;2.40;;;21.50;65.60;;;;;;4960999;28;20598;-77
2021/05/19 09:29:29;;;;;;;4.97;2.28;;;21.50;65.40;;;;;;4958157;28;20029;-78
2021/05/19 09:31:56;;;;;;;;;;;21.80;65.20;;;;;;4969298;28;20058;-78
2021/05/19 09:34:38;;;;;;;5.55;2.00;;;21.50;65.10;;;;;;4948967;28;19906;-78
2021/05/19 09:37:14;;;;;;;6.50;2.15;;;21.60;64.30;;;;;;4950765;28;20476;-79
2021/05/19 09:39:55;;;;;;;5.97;1.90;;;22.10;64.40;;;;;;4969602;28;20106;-78
2021/05/19 09:42:23;;;;;;;;;;;22.70;63.50;;;;;;4950772;28;20039;-79
2021/05/19 09:44:50;;;;;;;5.13;2.33;;;23.00;62.60;;;;;;4975351;28;19910;-79
2021/05/19 09:47:39;;;;;;;4.00;1.55;;;22.60;62.10;;;;;;4961530;28;20038;-78
2021/05/19 09:50:10;;;;;;;6.82;2.63;;;22.70;63.70;;;;;;4953760;28;20110;-78
2021/05/19 09:52:35;;;;;;;9.98;2.08;;;22.60;63.70;;;;;;4952696;28;20063;-78
2021/05/19 09:55:10;;;;;;;4.35;1.70;;;22.20;63.80;;;;;;4960585;28;20067;-78
2021/05/19 09:57:45;;;;;;;6.25;1.80;;;22.70;64.00;;;;;;4958551;28;20019;-78
2021/05/19 10:00:19;;;;;;;5.65;2.28;;;23.10;62.70;;;;;;4952845;28;20062;-79
2021/05/19 10:02:46;;;;;;;3.38;1.70;;;22.90;62.30;;;;;;4951831;28;20454;-79
2021/05/19 10:05:28;;;;;;;3.05;1.60;;;23.20;62.70;;;;;;4957362;28;20062;-78
2021/05/19 10:07:54;;;;;;;4.00;1.33;;;22.90;61.60;;;;;;4959960;28;20042;-76
2021/05/19 10:10:24;;;;;;;4.75;1.40;;;22.90;61.00;;;;;;4962209;28;20106;-78
2021/05/19 10:12:50;;;;;;;3.40;1.55;;;23.00;57.70;;;;;;4953052;28;20038;-79
2021/05/19 10:15:31;;;;;;;2.65;1.30;;;23.20;58.80;;;;;;4957072;28;20106;-78
2021/05/19 10:18:10;;;;;;;4.28;1.35;;;23.20;58.10;;;;;;4961311;28;20023;-79
2021/05/19 10:20:40;;;;;;;4.93;1.65;;;22.70;59.70;;;;;;4956404;28;20110;-77
2021/05/19 10:23:13;;;;;;;6.88;1.67;;;23.20;60.30;;;;;;4958390;28;20028;-78
2021/05/19 10:25:43;;;;;;;4.32;1.70;;;23.60;59.10;;;;;;4950487;28;20473;-80
2021/05/19 10:28:14;;;;;;;;;;;23.60;58.40;;;;;;4953306;28;20023;-77
2021/05/19 10:30:43;;;;;;;4.30;1.70;;;24.10;58.80;;;;;;4952011;28;19910;-81
2021/05/19 10:33:30;;;;;;;6.53;1.42;;;23.50;58.40;;;;;;4941598;28;20078;-82
2021/05/19 10:35:58;;;;;;;3.40;1.45;;;23.30;58.60;;;;;;4952356;28;20038;-81
2021/05/19 10:38:35;;;;;;;3.55;1.30;;;23.20;58.00;;;;;;4960592;28;20038;-79
2021/05/19 10:41:03;;;;;;;5.45;1.60;;;23.00;58.50;;;;;;4963292;28;20042;-81
2021/05/19 10:44:19;;;;;;;7.05;1.65;;;23.10;58.60;;;;;;4960951;28;20092;-78
2021/05/19 10:46:59;;;;;;;3.10;1.30;;;23.60;59.20;;;;;;4909935;29;20080;-80
2021/05/19 10:50:11;;;;;;;8.70;2.88;;;23.50;57.90;;;;;;4960679;28;20039;-78
2021/05/19 10:58:35;;;;;;;4.88;1.50;;;23.70;55.00;;;;;;4950556;28;20098;-79
2021/05/19 11:01:01;;;;;;;3.55;1.33;;;23.70;57.20;;;;;;4963030;28;20110;-81
2021/05/19 11:03:27;;;;;;;8.38;2.05;;;23.50;55.10;;;;;;4951512;29;20319;-80
2021/05/19 11:05:53;;;;;;;3.00;1.50;;;23.30;55.10;;;;;;4951775;29;20031;-80
2021/05/19 11:08:19;;;;;;;2.97;1.17;;;23.30;54.70;;;;;;4953078;28;20487;-80
2021/05/19 11:10:51;;;;;;;4.10;1.33;;;23.30;55.00;;;;;;4953605;28;20035;-79
2021/05/19 11:13:19;;;;;;;4.32;1.33;;;23.30;55.50;;;;;;4962108;28;20022;-79
2021/05/19 11:21:27;;;;;;;2.88;1.40;;;23.90;55.00;;;;;;4953592;29;20032;-77
2021/05/19 11:24:13;;;;;;;3.05;1.45;;;23.60;53.20;;;;;;4955404;29;20027;-77
2021/05/19 11:26:41;;;;;;;4.57;1.80;;;23.80;54.30;;;;;;4955310;28;20034;-76
2021/05/19 11:29:10;;;;;;;3.90;1.52;;;23.70;55.10;;;;;;4954026;29;20143;-77
2021/05/19 11:31:40;;;;;;;3.20;1.40;;;24.10;54.60;;;;;;4954734;28;20094;-79
2021/05/19 11:34:08;;;;;;;3.67;1.17;;;23.90;53.70;;;;;;4954993;28;20026;-78
2021/05/19 11:36:46;;;;;;;3.15;1.35;;;24.00;53.40;;;;;;4955551;28;20442;-77
2021/05/19 11:39:23;;;;;;;3.55;1.40;;;24.20;53.70;;;;;;4957764;28;20125;-76
2021/05/19 11:41:50;;;;;;;4.45;1.48;;;24.20;53.00;;;;;;4958104;28;20427;-77
2021/05/19 11:44:41;;;;;;;4.30;2.08;;;24.50;53.50;;;;;;4958902;28;20035;-81
2021/05/19 11:47:08;;;;;;;6.75;1.50;;;24.90;53.10;;;;;;4955183;28;20069;-77
2021/05/19 11:49:34;;;;;;;6.15;1.70;;;25.10;54.00;;;;;;4957976;28;20027;-78
2021/05/19 11:52:00;;;;;;;6.40;1.80;;;25.20;53.10;;;;;;4961112;28;20074;-74
2021/05/19 11:54:26;;;;;;;5.70;1.90;;;25.60;53.60;;;;;;4953908;29;20051;-79
2021/05/19 11:56:55;;;;;;;4.82;1.90;;;25.80;53.30;;;;;;4954107;28;20502;-80
2021/05/19 11:59:35;;;;;;;3.88;1.30;;;25.80;53.10;;;;;;4954550;28;20043;-78
2021/05/19 12:02:04;;;;;;;3.60;1.80;;;25.60;52.20;;;;;;4953755;28;20539;-79
2021/05/19 12:04:33;;;;;;;4.88;1.40;;;25.70;53.90;;;;;;4954314;29;20336;-80
2021/05/19 12:07:02;;;;;;;3.03;1.50;;;25.90;53.40;;;;;;4955761;28;20121;-79
2021/05/19 12:09:42;;;;;;;4.45;1.35;;;26.30;52.90;;;;;;4953789;29;20038;-80
2021/05/19 12:12:16;;;;;;;4.88;1.92;;;26.70;53.50;;;;;;4955827;28;20361;-80
2021/05/19 12:14:54;;;;;;;5.75;1.80;;;26.90;53.50;;;;;;4955513;28;20118;-79
2021/05/19 12:17:27;;;;;;;3.20;1.30;;;26.90;52.20;;;;;;4955074;28;20361;-78
2021/05/19 12:19:53;;;;;;;2.75;1.20;;;26.80;51.00;;;;;;4955532;29;20039;-78
2021/05/19 12:22:22;;;;;;;4.03;1.50;;;26.40;50.90;;;;;;4955442;28;20063;-83
2021/05/19 12:24:53;;;;;;;3.53;1.30;;;26.30;50.90;;;;;;4954589;28;20027;-79
2021/05/19 12:27:21;;;;;;;3.72;1.42;;;26.30;51.40;;;;;;4945632;29;20019;-79
2021/05/19 12:29:57;;;;;;;5.53;2.00;;;26.70;51.80;;;;;;4934901;29;20035;-79
2021/05/19 12:32:31;;;;;;;6.05;1.85;;;26.80;50.20;;;;;;4944679;29;20034;-78
2021/05/19 12:35:06;;;;;;;4.32;1.60;;;26.90;53.00;;;;;;4940068;29;20083;-80
2021/05/19 12:37:54;;;;;;;3.22;1.60;;;26.70;50.40;;;;;;4967900;28;20066;-80
2021/05/19 12:40:24;;;;;;;4.78;1.70;;;27.00;50.90;;;;;;4953049;29;20043;-83
2021/05/19 12:43:10;;;;;;;4.03;1.43;;;27.20;50.00;;;;;;4953295;28;20019;-82
2021/05/19 12:46:43;;;;;;;4.57;1.90;;;27.40;49.90;;;;;;4952935;29;20042;-80
2021/05/19 12:49:16;;;;;;;4.35;1.70;;;27.60;49.50;;;;;;4932628;29;20044;-84
2021/05/19 12:52:00;;;;;;;5.28;1.83;;;27.70;48.60;;;;;;4935997;29;20031;-83
2021/05/19 12:54:34;;;;;;;6.85;2.33;;;27.60;48.60;;;;;;4952448;29;20087;-81
2021/05/19 12:57:11;;;;;;;4.95;1.50;;;27.80;50.20;;;;;;4952206;29;20020;-84
2021/05/19 13:00:31;;;;;;;6.28;2.05;;;27.70;46.00;;;;;;4954978;28;20042;-84
2021/05/19 13:02:57;;;;;;;5.57;2.20;;;27.70;49.00;;;;;;4954961;28;20023;-84
2021/05/19 13:05:27;;;;;;;6.32;1.98;;;28.00;48.50;;;;;;4953284;28;20087;-82
2021/05/19 13:07:53;;;;;;;6.03;1.70;;;28.00;47.00;;;;;;4953656;28;20027;-81
2021/05/19 13:10:33;;;;;;;6.72;2.35;;;27.90;47.10;;;;;;4949765;29;20086;-81
2021/05/19 13:15:45;;;;;;;6.32;2.10;;;27.90;48.20;;;;;;4953026;28;20058;-81
2021/05/19 13:18:37;;;;;;;5.07;1.45;;;28.30;48.50;;;;;;4952847;29;20131;-82
2021/05/19 13:21:08;;;;;;;3.67;1.35;;;28.40;47.00;;;;;;4951935;29;20039;-81
2021/05/19 13:23:56;;;;;;;3.88;1.65;;;27.80;46.10;;;;;;4951664;29;20031;-82
2021/05/19 13:26:30;;;;;;;7.00;1.65;;;27.80;47.50;;;;;;4950803;29;20034;-82
2021/05/19 13:28:57;;;;;;;5.85;1.90;;;28.30;46.80;;;;;;4953088;28;20462;-81
2021/05/19 13:31:29;;;;;;;5.45;2.03;;;28.50;46.30;;;;;;4951930;29;20387;-78
2021/05/19 13:39:26;;;;;;;2.75;1.10;;;28.70;47.30;;;;;;4952741;28;20043;-83